sensor_id;sensor_type;location;lat;lon;timestamp;P1;durP1;ratioP1;P2;durP2;ratioP2
59109;SDS011;44895;47.438;18.978;2023-11-21T00:02:58;12.38;;;7.97;;
59109;SDS011;44895;47.438;18.978;2023-11-21T00:06:02;13.15;;;7.82;;
59109;SDS011;44895;47.438;18.978;2023-11-21T00:09:06;13.02;;;7.05;;
59109;SDS011;44895;47.438;18.978;2023-11-21T00:12:12;14.40;;;8.50;;
59109;SDS011;44895;47.438;18.978;2023-11-21T00:15:17;16.08;;;11.27;;
59109;SDS011;44895;47.438;18.978;2023-11-21T00:18:21;11.82;;;7.40;;
59109;SDS011;44895;47.438;18.978;2023-11-21T00:21:25;14.20;;;8.65;;
59109;SDS011;44895;47.438;18.978;2023-11-21T00:24:28;16.40;;;8.82;;
59109;SDS011;44895;47.438;18.978;2023-11-21T00:27:32;13.15;;;9.25;;
59109;SDS011;44895;47.438;18.978;2023-11-21T00:30:36;14.90;;;8.48;;
59109;SDS011;44895;47.438;18.978;2023-11-21T00:33:40;27.25;;;9.82;;
59109;SDS011;44895;47.438;18.978;2023-11-21T00:36:43;12.55;;;8.38;;
59109;SDS011;44895;47.438;18.978;2023-11-21T00:39:47;10.30;;;6.63;;
59109;SDS011;44895;47.438;18.978;2023-11-21T00:42:51;12.60;;;5.45;;
59109;SDS011;44895;47.438;18.978;2023-11-21T00:45:55;12.23;;;6.32;;
59109;SDS011;44895;47.438;18.978;2023-11-21T00:48:59;19.85;;;13.93;;
59109;SDS011;44895;47.438;18.978;2023-11-21T00:52:02;42.58;;;31.48;;
59109;SDS011;44895;47.438;18.978;2023-11-21T00:55:07;39.20;;;27.85;;
59109;SDS011;44895;47.438;18.978;2023-11-21T00:58:11;35.65;;;24.70;;
59109;SDS011;44895;47.438;18.978;2023-11-21T01:01:15;31.60;;;20.10;;
59109;SDS011;44895;47.438;18.978;2023-11-21T01:04:19;20.67;;;14.50;;
59109;SDS011;44895;47.438;18.978;2023-11-21T01:07:22;19.15;;;12.23;;
59109;SDS011;44895;47.438;18.978;2023-11-21T01:10:26;21.00;;;13.45;;
59109;SDS011;44895;47.438;18.978;2023-11-21T01:13:31;16.65;;;12.35;;
59109;SDS011;44895;47.438;18.978;2023-11-21T01:16:36;18.90;;;10.13;;
59109;SDS011;44895;47.438;18.978;2023-11-21T01:19:40;15.15;;;9.75;;
59109;SDS011;44895;47.438;18.978;2023-11-21T01:22:44;16.77;;;9.98;;
59109;SDS011;44895;47.438;18.978;2023-11-21T01:25:48;17.30;;;11.05;;
59109;SDS011;44895;47.438;18.978;2023-11-21T01:28:52;20.67;;;11.23;;
59109;SDS011;44895;47.438;18.978;2023-11-21T01:31:56;20.20;;;13.10;;
59109;SDS011;44895;47.438;18.978;2023-11-21T01:35:00;16.92;;;12.35;;
59109;SDS011;44895;47.438;18.978;2023-11-21T01:38:04;18.08;;;12.50;;
59109;SDS011;44895;47.438;18.978;2023-11-21T01:41:08;19.67;;;13.18;;
59109;SDS011;44895;47.438;18.978;2023-11-21T01:44:14;17.35;;;11.25;;
59109;SDS011;44895;47.438;18.978;2023-11-21T01:47:18;14.68;;;9.95;;
59109;SDS011;44895;47.438;18.978;2023-11-21T01:50:21;14.70;;;10.48;;
59109;SDS011;44895;47.438;18.978;2023-11-21T01:53:25;13.60;;;8.32;;
59109;SDS011;44895;47.438;18.978;2023-11-21T01:56:30;16.95;;;8.25;;
59109;SDS011;44895;47.438;18.978;2023-11-21T01:59:35;12.95;;;8.20;;
59109;SDS011;44895;47.438;18.978;2023-11-21T02:02:47;11.52;;;8.10;;
59109;SDS011;44895;47.438;18.978;2023-11-21T02:05:52;12.85;;;6.55;;
59109;SDS011;44895;47.438;18.978;2023-11-21T02:08:57;11.07;;;6.63;;
59109;SDS011;44895;47.438;18.978;2023-11-21T02:12:01;10.85;;;5.90;;
59109;SDS011;44895;47.438;18.978;2023-11-21T02:15:05;10.93;;;6.07;;
59109;SDS011;44895;47.438;18.978;2023-11-21T02:18:12;12.15;;;7.43;;
59109;SDS011;44895;47.438;18.978;2023-11-21T02:21:18;11.95;;;7.10;;
59109;SDS011;44895;47.438;18.978;2023-11-21T02:24:24;11.18;;;6.97;;
59109;SDS011;44895;47.438;18.978;2023-11-21T02:27:28;11.65;;;7.82;;
59109;SDS011;44895;47.438;18.978;2023-11-21T02:30:32;17.17;;;8.55;;
59109;SDS011;44895;47.438;18.978;2023-11-21T02:33:36;11.60;;;7.15;;
59109;SDS011;44895;47.438;18.978;2023-11-21T02:36:40;11.57;;;6.22;;
59109;SDS011;44895;47.438;18.978;2023-11-21T02:39:45;10.50;;;6.03;;
59109;SDS011;44895;47.438;18.978;2023-11-21T02:42:50;10.55;;;4.85;;
59109;SDS011;44895;47.438;18.978;2023-11-21T02:45:54;12.30;;;5.35;;
59109;SDS011;44895;47.438;18.978;2023-11-21T02:48:57;11.68;;;5.15;;
59109;SDS011;44895;47.438;18.978;2023-11-21T02:52:01;8.93;;;5.03;;
59109;SDS011;44895;47.438;18.978;2023-11-21T02:55:05;50.90;;;31.77;;
59109;SDS011;44895;47.438;18.978;2023-11-21T02:58:10;17.30;;;11.30;;
59109;SDS011;44895;47.438;18.978;2023-11-21T03:01:14;14.85;;;7.65;;
59109;SDS011;44895;47.438;18.978;2023-11-21T03:04:17;12.77;;;8.50;;
59109;SDS011;44895;47.438;18.978;2023-11-21T03:07:22;16.65;;;7.72;;
59109;SDS011;44895;47.438;18.978;2023-11-21T03:10:26;13.35;;;7.65;;
59109;SDS011;44895;47.438;18.978;2023-11-21T03:13:30;16.25;;;7.88;;
59109;SDS011;44895;47.438;18.978;2023-11-21T03:16:35;11.63;;;6.97;;
59109;SDS011;44895;47.438;18.978;2023-11-21T03:19:39;18.50;;;6.18;;
59109;SDS011;44895;47.438;18.978;2023-11-21T03:22:45;9.73;;;6.35;;
59109;SDS011;44895;47.438;18.978;2023-11-21T03:25:49;15.68;;;6.13;;
59109;SDS011;44895;47.438;18.978;2023-11-21T03:28:53;11.60;;;5.97;;
59109;SDS011;44895;47.438;18.978;2023-11-21T03:31:57;12.02;;;5.45;;
59109;SDS011;44895;47.438;18.978;2023-11-21T03:35:01;11.82;;;5.80;;
59109;SDS011;44895;47.438;18.978;2023-11-21T03:38:05;15.25;;;7.63;;
59109;SDS011;44895;47.438;18.978;2023-11-21T03:41:09;12.18;;;6.97;;
59109;SDS011;44895;47.438;18.978;2023-11-21T03:44:13;16.13;;;8.73;;
59109;SDS011;44895;47.438;18.978;2023-11-21T03:47:17;12.98;;;8.50;;
59109;SDS011;44895;47.438;18.978;2023-11-21T03:50:22;15.00;;;7.10;;
59109;SDS011;44895;47.438;18.978;2023-11-21T03:53:26;15.63;;;7.68;;
59109;SDS011;44895;47.438;18.978;2023-11-21T03:56:30;11.13;;;7.47;;
59109;SDS011;44895;47.438;18.978;2023-11-21T03:59:33;13.52;;;7.00;;
59109;SDS011;44895;47.438;18.978;2023-11-21T04:02:37;17.00;;;7.43;;
59109;SDS011;44895;47.438;18.978;2023-11-21T04:05:41;15.15;;;5.65;;
59109;SDS011;44895;47.438;18.978;2023-11-21T04:08:44;14.98;;;7.53;;
59109;SDS011;44895;47.438;18.978;2023-11-21T04:11:48;9.77;;;5.03;;
59109;SDS011;44895;47.438;18.978;2023-11-21T04:14:52;11.52;;;5.78;;
59109;SDS011;44895;47.438;18.978;2023-11-21T04:17:56;11.65;;;5.55;;
59109;SDS011;44895;47.438;18.978;2023-11-21T04:20:59;13.35;;;6.28;;
59109;SDS011;44895;47.438;18.978;2023-11-21T04:24:03;13.07;;;7.18;;
59109;SDS011;44895;47.438;18.978;2023-11-21T04:27:07;12.00;;;6.78;;
59109;SDS011;44895;47.438;18.978;2023-11-21T04:30:11;15.20;;;8.57;;
59109;SDS011;44895;47.438;18.978;2023-11-21T04:33:16;13.30;;;6.50;;
59109;SDS011;44895;47.438;18.978;2023-11-21T04:36:20;15.32;;;7.53;;
59109;SDS011;44895;47.438;18.978;2023-11-21T04:39:23;12.98;;;8.18;;
59109;SDS011;44895;47.438;18.978;2023-11-21T04:42:27;10.45;;;5.47;;
59109;SDS011;44895;47.438;18.978;2023-11-21T04:45:32;10.68;;;5.47;;
59109;SDS011;44895;47.438;18.978;2023-11-21T04:48:35;11.13;;;7.25;;
59109;SDS011;44895;47.438;18.978;2023-11-21T04:51:39;10.77;;;5.53;;
59109;SDS011;44895;47.438;18.978;2023-11-21T04:54:43;10.02;;;4.40;;
59109;SDS011;44895;47.438;18.978;2023-11-21T04:57:48;16.83;;;5.47;;
59109;SDS011;44895;47.438;18.978;2023-11-21T05:00:52;9.85;;;5.18;;
59109;SDS011;44895;47.438;18.978;2023-11-21T05:03:55;16.52;;;5.13;;
59109;SDS011;44895;47.438;18.978;2023-11-21T05:07:00;14.65;;;4.15;;
59109;SDS011;44895;47.438;18.978;2023-11-21T05:10:04;9.32;;;4.15;;
59109;SDS011;44895;47.438;18.978;2023-11-21T05:13:14;8.43;;;3.70;;
59109;SDS011;44895;47.438;18.978;2023-11-21T05:16:20;12.90;;;4.45;;
59109;SDS011;44895;47.438;18.978;2023-11-21T05:19:24;10.85;;;5.13;;
59109;SDS011;44895;47.438;18.978;2023-11-21T05:22:28;6.75;;;3.25;;
59109;SDS011;44895;47.438;18.978;2023-11-21T05:25:31;7.68;;;4.15;;
59109;SDS011;44895;47.438;18.978;2023-11-21T05:28:35;8.80;;;4.20;;
59109;SDS011;44895;47.438;18.978;2023-11-21T05:31:40;8.10;;;3.38;;
59109;SDS011;44895;47.438;18.978;2023-11-21T05:34:43;10.35;;;4.50;;
59109;SDS011;44895;47.438;18.978;2023-11-21T05:37:47;14.68;;;5.20;;
59109;SDS011;44895;47.438;18.978;2023-11-21T05:40:51;11.55;;;3.50;;
59109;SDS011;44895;47.438;18.978;2023-11-21T05:43:55;10.43;;;4.32;;
59109;SDS011;44895;47.438;18.978;2023-11-21T05:46:59;9.85;;;3.08;;
59109;SDS011;44895;47.438;18.978;2023-11-21T05:50:03;7.78;;;3.72;;
59109;SDS011;44895;47.438;18.978;2023-11-21T05:53:09;11.38;;;4.30;;
59109;SDS011;44895;47.438;18.978;2023-11-21T05:56:14;10.18;;;4.47;;
59109;SDS011;44895;47.438;18.978;2023-11-21T05:59:18;7.13;;;2.88;;
59109;SDS011;44895;47.438;18.978;2023-11-21T06:02:23;9.98;;;4.30;;
59109;SDS011;44895;47.438;18.978;2023-11-21T06:05:27;12.23;;;6.70;;
59109;SDS011;44895;47.438;18.978;2023-11-21T06:08:31;15.85;;;4.50;;
59109;SDS011;44895;47.438;18.978;2023-11-21T06:11:35;11.35;;;3.90;;
59109;SDS011;44895;47.438;18.978;2023-11-21T06:14:39;12.55;;;5.78;;
59109;SDS011;44895;47.438;18.978;2023-11-21T06:17:42;16.17;;;6.75;;
59109;SDS011;44895;47.438;18.978;2023-11-21T06:20:47;12.93;;;7.78;;
59109;SDS011;44895;47.438;18.978;2023-11-21T06:23:51;10.55;;;6.72;;
59109;SDS011;44895;47.438;18.978;2023-11-21T06:26:55;12.00;;;7.78;;
59109;SDS011;44895;47.438;18.978;2023-11-21T06:29:59;10.73;;;6.40;;
59109;SDS011;44895;47.438;18.978;2023-11-21T06:33:03;14.18;;;6.80;;
59109;SDS011;44895;47.438;18.978;2023-11-21T06:36:07;13.30;;;7.03;;
59109;SDS011;44895;47.438;18.978;2023-11-21T06:39:11;11.10;;;6.65;;
59109;SDS011;44895;47.438;18.978;2023-11-21T06:42:15;11.43;;;6.75;;
59109;SDS011;44895;47.438;18.978;2023-11-21T06:45:19;11.95;;;6.13;;
59109;SDS011;44895;47.438;18.978;2023-11-21T06:48:23;14.10;;;7.68;;
59109;SDS011;44895;47.438;18.978;2023-11-21T06:51:27;12.85;;;7.75;;
59109;SDS011;44895;47.438;18.978;2023-11-21T06:54:31;13.15;;;8.13;;
59109;SDS011;44895;47.438;18.978;2023-11-21T06:57:35;11.00;;;6.38;;
59109;SDS011;44895;47.438;18.978;2023-11-21T07:00:39;14.02;;;8.73;;
59109;SDS011;44895;47.438;18.978;2023-11-21T07:04:01;14.18;;;7.88;;
59109;SDS011;44895;47.438;18.978;2023-11-21T07:07:06;12.52;;;6.88;;
59109;SDS011;44895;47.438;18.978;2023-11-21T07:10:10;13.05;;;6.45;;
59109;SDS011;44895;47.438;18.978;2023-11-21T07:13:14;12.68;;;6.40;;
59109;SDS011;44895;47.438;18.978;2023-11-21T07:16:18;10.82;;;6.35;;
59109;SDS011;44895;47.438;18.978;2023-11-21T07:19:21;10.15;;;5.85;;
59109;SDS011;44895;47.438;18.978;2023-11-21T07:22:25;15.65;;;6.85;;
59109;SDS011;44895;47.438;18.978;2023-11-21T07:25:29;13.95;;;6.85;;
59109;SDS011;44895;47.438;18.978;2023-11-21T07:28:33;9.95;;;6.47;;
59109;SDS011;44895;47.438;18.978;2023-11-21T07:31:37;13.35;;;6.20;;
59109;SDS011;44895;47.438;18.978;2023-11-21T07:34:41;11.88;;;6.30;;
59109;SDS011;44895;47.438;18.978;2023-11-21T07:37:44;16.40;;;6.50;;
59109;SDS011;44895;47.438;18.978;2023-11-21T07:40:48;12.35;;;6.57;;
59109;SDS011;44895;47.438;18.978;2023-11-21T07:43:52;11.88;;;6.25;;
59109;SDS011;44895;47.438;18.978;2023-11-21T07:46:57;14.82;;;7.43;;
59109;SDS011;44895;47.438;18.978;2023-11-21T07:50:04;14.43;;;7.82;;
59109;SDS011;44895;47.438;18.978;2023-11-21T07:53:07;12.15;;;5.93;;
59109;SDS011;44895;47.438;18.978;2023-11-21T07:56:11;10.23;;;5.55;;
59109;SDS011;44895;47.438;18.978;2023-11-21T07:59:16;12.23;;;5.65;;
59109;SDS011;44895;47.438;18.978;2023-11-21T08:02:21;12.38;;;5.90;;
59109;SDS011;44895;47.438;18.978;2023-11-21T08:05:25;12.07;;;5.15;;
59109;SDS011;44895;47.438;18.978;2023-11-21T08:08:29;9.77;;;5.03;;
59109;SDS011;44895;47.438;18.978;2023-11-21T08:11:32;12.55;;;5.07;;
59109;SDS011;44895;47.438;18.978;2023-11-21T08:14:36;12.50;;;5.88;;
59109;SDS011;44895;47.438;18.978;2023-11-21T08:17:42;9.48;;;5.28;;
59109;SDS011;44895;47.438;18.978;2023-11-21T08:20:46;16.52;;;6.22;;
59109;SDS011;44895;47.438;18.978;2023-11-21T08:23:53;12.98;;;6.72;;
59109;SDS011;44895;47.438;18.978;2023-11-21T08:26:57;11.18;;;5.97;;
59109;SDS011;44895;47.438;18.978;2023-11-21T08:30:04;11.82;;;6.80;;
59109;SDS011;44895;47.438;18.978;2023-11-21T08:33:08;13.73;;;6.63;;
59109;SDS011;44895;47.438;18.978;2023-11-21T08:36:12;12.70;;;6.47;;
59109;SDS011;44895;47.438;18.978;2023-11-21T08:39:16;14.98;;;7.40;;
